createdAt,value
2023-01-01T00:00:49.727Z,6.80
2023-01-01T00:03:18.070Z,3.70
2023-01-01T00:05:46.235Z,3.33
2023-01-01T00:08:14.203Z,4.23
2023-01-01T00:10:42.537Z,2.87
2023-01-01T00:13:15.067Z,2.87
2023-01-01T00:15:43.078Z,4.73
2023-01-01T00:18:10.932Z,2.83
2023-01-01T00:20:38.775Z,3.67
2023-01-01T00:23:06.642Z,3.30
2023-01-01T00:25:34.539Z,2.90
2023-01-01T00:28:03.966Z,2.77
2023-01-01T00:30:31.870Z,2.73
2023-01-01T00:32:59.766Z,3.30
2023-01-01T00:35:28.414Z,2.70
2023-01-01T00:37:56.876Z,3.07
2023-01-01T00:40:24.839Z,2.90
2023-01-01T00:42:52.750Z,2.70
2023-01-01T00:45:22.840Z,3.00
2023-01-01T00:47:52.632Z,2.60
2023-01-01T00:50:23.219Z,2.53
2023-01-01T00:52:51.589Z,2.60
2023-01-01T00:55:19.735Z,2.30
2023-01-01T00:57:47.652Z,1.90
2023-01-01T01:00:17.281Z,1.97
2023-01-01T01:02:46.738Z,2.00
2023-01-01T01:05:14.669Z,2.70
2023-01-01T01:07:43.226Z,1.93
2023-01-01T01:10:12.104Z,2.20
2023-01-01T01:12:40.398Z,2.47
2023-01-01T01:15:10.646Z,3.30
2023-01-01T01:17:38.530Z,2.83
2023-01-01T01:20:09.848Z,2.93
2023-01-01T01:22:37.765Z,2.40
2023-01-01T01:25:07.902Z,2.60
2023-01-01T01:27:35.861Z,2.83
2023-01-01T01:30:04.535Z,2.67
2023-01-01T01:32:32.407Z,2.30
2023-01-01T01:35:00.281Z,2.50
2023-01-01T01:37:29.887Z,2.17
2023-01-01T01:39:58.171Z,2.60
2023-01-01T01:42:26.069Z,2.37
2023-01-01T01:44:58.385Z,2.80
2023-01-01T01:47:36.645Z,2.50
2023-01-01T01:50:12.368Z,2.77
2023-01-01T01:52:52.145Z,2.47
2023-01-01T01:55:20.193Z,3.00
2023-01-01T01:57:48.104Z,2.47
2023-01-01T02:00:17.582Z,2.77
2023-01-01T02:02:55.799Z,2.87
2023-01-01T02:05:24.991Z,3.20
2023-01-01T02:07:56.303Z,3.00
2023-01-01T02:10:24.158Z,3.27
2023-01-01T02:12:52.205Z,2.70
2023-01-01T02:15:20.493Z,3.00
2023-01-01T02:18:00.736Z,3.43
2023-01-01T02:20:49.219Z,2.90
2023-01-01T02:23:50.856Z,2.83
2023-01-01T02:26:46.390Z,2.67
2023-01-01T02:29:42.595Z,3.27
2023-01-01T02:32:15.978Z,3.00
2023-01-01T02:34:52.287Z,2.80
2023-01-01T02:37:27.803Z,2.70
2023-01-01T02:40:00.336Z,2.67
2023-01-01T02:42:30.996Z,2.83
2023-01-01T02:45:01.275Z,2.73
2023-01-01T02:47:29.146Z,3.00
2023-01-01T02:50:06.781Z,2.83
2023-01-01T02:53:02.692Z,2.77
2023-01-01T02:56:08.470Z,3.20
2023-01-01T02:59:01.173Z,2.67
2023-01-01T03:01:51.593Z,3.30
2023-01-01T03:04:30.841Z,2.90
2023-01-01T03:07:12.606Z,2.87
2023-01-01T03:09:56.094Z,2.57
2023-01-01T03:12:40.340Z,2.70
2023-01-01T03:15:20.926Z,2.90
2023-01-01T03:17:58.330Z,3.23
2023-01-01T03:20:30.820Z,3.37
2023-01-01T03:23:07.479Z,3.40
2023-01-01T03:25:43.488Z,3.13
2023-01-01T03:28:17.586Z,2.90
2023-01-01T03:30:49.557Z,3.13
2023-01-01T03:33:25.970Z,2.67
2023-01-01T03:36:00.283Z,2.10
2023-01-01T03:38:36.799Z,2.40
2023-01-01T03:41:12.765Z,2.80
2023-01-01T03:43:49.267Z,2.53
2023-01-01T03:46:24.424Z,3.00
2023-01-01T03:49:03.392Z,2.87
2023-01-01T03:51:58.032Z,2.67
2023-01-01T03:54:38.062Z,2.67
2023-01-01T03:57:14.456Z,3.03
2023-01-01T03:59:53.459Z,3.43
2023-01-01T04:02:29.420Z,2.90
2023-01-01T04:05:07.406Z,2.40
2023-01-01T04:07:35.959Z,3.03
2023-01-01T04:10:17.196Z,3.50
2023-01-01T04:12:51.366Z,2.93
2023-01-01T04:15:22.182Z,2.53
2023-01-01T04:17:50.032Z,2.50
2023-01-01T04:20:20.594Z,2.40
2023-01-01T04:22:48.576Z,2.97
2023-01-01T04:25:18.262Z,2.93
2023-01-01T04:27:46.147Z,2.73
2023-01-01T04:30:16.102Z,2.83
2023-01-01T04:32:44.648Z,3.27
2023-01-01T04:35:14.840Z,2.30
2023-01-01T04:37:45.582Z,3.17
2023-01-01T04:40:15.127Z,2.90
2023-01-01T04:42:44.247Z,2.53
2023-01-01T04:45:14.998Z,2.53
2023-01-01T04:47:43.526Z,2.80
2023-01-01T04:50:11.969Z,3.03
2023-01-01T04:52:39.922Z,3.50
2023-01-01T04:55:10.261Z,2.50
2023-01-01T04:57:38.185Z,2.97
2023-01-01T05:00:07.782Z,2.60
2023-01-01T05:02:36.087Z,2.93
2023-01-01T05:05:04.441Z,2.97
2023-01-01T05:07:34.396Z,3.10
2023-01-01T05:10:02.323Z,2.90
2023-01-01T05:12:32.278Z,3.37
2023-01-01T05:15:00.139Z,2.80
2023-01-01T05:17:28.051Z,3.07
2023-01-01T05:19:55.901Z,2.90
2023-01-01T05:22:23.764Z,2.70
2023-01-01T05:24:51.982Z,2.80
2023-01-01T05:27:19.846Z,3.40
2023-01-01T05:29:49.067Z,2.87
2023-01-01T05:34:43.685Z,3.20
2023-01-01T05:37:11.561Z,3.53
2023-01-01T05:39:39.406Z,3.60
2023-01-01T05:42:07.326Z,3.33
2023-01-01T05:44:35.550Z,3.07
2023-01-01T05:47:07.652Z,3.17
2023-01-01T05:49:36.423Z,3.27
2023-01-01T05:52:05.027Z,3.20
2023-01-01T05:54:32.868Z,3.17
2023-01-01T05:57:00.715Z,3.27
2023-01-01T05:59:28.565Z,3.40
2023-01-01T06:01:59.771Z,2.97
2023-01-01T06:04:29.606Z,3.10
2023-01-01T06:06:57.634Z,3.23
2023-01-01T06:09:25.553Z,3.37
2023-01-01T06:11:53.396Z,3.10
2023-01-01T06:14:21.469Z,3.13
2023-01-01T06:16:50.318Z,3.53
2023-01-01T06:19:18.209Z,3.60
2023-01-01T06:21:47.422Z,4.07
2023-01-01T06:24:15.487Z,3.67
2023-01-01T06:26:43.389Z,3.97
2023-01-01T06:29:11.366Z,3.90
2023-01-01T06:31:40.971Z,3.13
2023-01-01T06:34:09.457Z,3.63
2023-01-01T06:36:37.343Z,3.23
2023-01-01T06:39:06.880Z,3.43
2023-01-01T06:41:35.081Z,3.40
2023-01-01T06:44:05.843Z,3.80
2023-01-01T06:46:36.477Z,3.63
2023-01-01T06:49:07.091Z,3.57
2023-01-01T06:51:39.194Z,3.50
2023-01-01T06:54:09.947Z,3.70
2023-01-01T06:56:38.858Z,3.73
2023-01-01T06:59:07.484Z,4.37
2023-01-01T07:01:40.023Z,5.60
2023-01-01T07:04:16.109Z,4.30
2023-01-01T07:06:44.302Z,5.00
2023-01-01T07:09:13.681Z,6.13
2023-01-01T07:11:41.581Z,3.83
2023-01-01T07:14:09.449Z,5.90
2023-01-01T07:16:37.363Z,4.97
2023-01-01T07:19:05.301Z,4.17
2023-01-01T07:21:39.195Z,4.30
2023-01-01T07:24:11.354Z,4.40
2023-01-01T07:26:41.942Z,3.73
2023-01-01T07:29:10.387Z,3.90
2023-01-01T07:31:41.537Z,3.60
2023-01-01T07:34:14.417Z,4.00
2023-01-01T07:36:42.726Z,4.07
2023-01-01T07:39:11.878Z,4.10
2023-01-01T07:41:41.165Z,3.90
2023-01-01T07:44:09.056Z,3.47
2023-01-01T07:46:38.029Z,3.57
2023-01-01T07:49:06.698Z,3.40
2023-01-01T07:51:34.722Z,3.50
2023-01-01T07:54:07.200Z,3.77
2023-01-01T07:56:36.422Z,3.80
2023-01-01T07:59:06.081Z,3.80
2023-01-01T08:01:37.833Z,3.57
2023-01-01T08:04:06.859Z,3.33
2023-01-01T08:06:34.818Z,3.40
2023-01-01T08:09:03.017Z,4.00
2023-01-01T08:11:33.440Z,4.00
2023-01-01T08:14:02.487Z,3.40
2023-01-01T08:16:31.940Z,3.40
2023-01-01T08:18:59.866Z,3.60
2023-01-01T08:21:27.754Z,3.37
2023-01-01T08:23:56.011Z,2.97
2023-01-01T08:26:31.135Z,3.20
2023-01-01T08:29:00.236Z,2.73
2023-01-01T08:31:28.264Z,3.20
2023-01-01T08:33:57.561Z,3.10
2023-01-01T08:36:25.903Z,3.00
2023-01-01T08:38:53.772Z,3.07
2023-01-01T08:41:23.345Z,3.23
2023-01-01T08:43:51.243Z,3.03
2023-01-01T08:46:19.193Z,2.70
2023-01-01T08:48:47.075Z,2.97
2023-01-01T08:51:16.961Z,3.17
2023-01-01T08:53:50.563Z,2.57
2023-01-01T08:56:18.927Z,3.00
2023-01-01T08:58:47.066Z,2.40
2023-01-01T09:01:14.956Z,2.67
2023-01-01T09:03:43.845Z,2.23
2023-01-01T09:06:11.692Z,2.73
2023-01-01T09:08:41.187Z,2.27
2023-01-01T09:11:09.256Z,2.10
2023-01-01T09:13:37.287Z,2.80
2023-01-01T09:16:05.852Z,3.00
2023-01-01T09:18:33.760Z,2.50
2023-01-01T09:21:01.627Z,2.37
2023-01-01T09:23:29.502Z,3.00
2023-01-01T09:26:03.894Z,2.40
2023-01-01T09:28:32.005Z,2.37
2023-01-01T09:31:01.071Z,2.93
2023-01-01T09:33:29.041Z,2.40
2023-01-01T09:36:11.949Z,2.57
2023-01-01T09:38:39.873Z,2.73
2023-01-01T09:41:25.695Z,2.47
2023-01-01T09:44:07.373Z,2.40
2023-01-01T09:46:36.689Z,2.40
2023-01-01T09:49:13.280Z,2.30
2023-01-01T09:51:51.111Z,2.50
2023-01-01T09:54:30.075Z,2.33
2023-01-01T09:57:03.881Z,2.77
2023-01-01T09:59:31.925Z,2.70
2023-01-01T10:02:15.587Z,2.60
2023-01-01T10:05:02.088Z,2.63
2023-01-01T10:07:40.617Z,2.50
2023-01-01T10:10:27.752Z,2.00
2023-01-01T10:13:11.425Z,2.20
2023-01-01T10:15:46.059Z,2.27
2023-01-01T10:18:23.225Z,2.43
2023-01-01T10:21:02.643Z,2.50
2023-01-01T10:23:36.977Z,2.20
2023-01-01T10:26:13.802Z,2.67
2023-01-01T10:28:53.467Z,2.30
2023-01-01T10:31:30.497Z,2.43
2023-01-01T10:33:59.143Z,2.20
2023-01-01T10:36:28.466Z,1.90
2023-01-01T10:38:58.923Z,2.03
2023-01-01T10:41:26.836Z,2.17
2023-01-01T10:43:56.266Z,2.17
2023-01-01T10:46:31.884Z,2.60
2023-01-01T10:49:12.146Z,2.53
2023-01-01T10:51:46.871Z,2.20
2023-01-01T10:54:33.990Z,2.60
2023-01-01T10:57:15.843Z,2.77
2023-01-01T10:59:53.588Z,2.50
2023-01-01T11:02:25.739Z,2.47
2023-01-01T11:05:20.707Z,2.23
2023-01-01T11:07:50.400Z,2.40
2023-01-01T11:10:21.977Z,2.40
2023-01-01T11:13:08.122Z,4.23
2023-01-01T11:15:43.029Z,2.80
2023-01-01T11:18:16.660Z,2.03
2023-01-01T11:20:51.853Z,2.33
2023-01-01T11:23:30.790Z,2.13
2023-01-01T11:26:03.104Z,2.10
2023-01-01T11:28:34.230Z,1.97
2023-01-01T11:31:13.457Z,2.07
2023-01-01T11:33:48.731Z,2.20
2023-01-01T11:36:25.052Z,2.00
2023-01-01T11:39:12.391Z,2.73
2023-01-01T11:41:47.310Z,2.00
2023-01-01T11:44:38.799Z,2.43
2023-01-01T11:47:24.280Z,1.60
2023-01-01T11:49:59.451Z,1.83
2023-01-01T11:52:49.874Z,2.17
2023-01-01T11:55:33.654Z,1.67
2023-01-01T11:58:19.547Z,2.30
2023-01-01T12:00:51.857Z,2.37
2023-01-01T12:03:33.408Z,2.00
2023-01-01T12:06:09.897Z,2.10
2023-01-01T12:08:45.309Z,1.70
2023-01-01T12:11:24.975Z,1.53
2023-01-01T12:14:00.952Z,1.87
2023-01-01T12:16:46.676Z,1.90
2023-01-01T12:19:23.148Z,2.03
2023-01-01T12:21:58.591Z,2.10
2023-01-01T12:24:33.006Z,2.20
2023-01-01T12:27:19.571Z,2.07
2023-01-01T12:30:11.496Z,2.37
2023-01-01T12:33:14.314Z,2.27
2023-01-01T12:36:02.723Z,2.00
2023-01-01T12:39:06.076Z,1.70
2023-01-01T12:41:45.000Z,2.00
2023-01-01T12:44:23.488Z,1.87
2023-01-01T12:47:02.091Z,2.13
2023-01-01T12:49:54.601Z,2.13
2023-01-01T12:52:45.151Z,1.90
2023-01-01T12:55:57.448Z,2.00
2023-01-01T12:58:34.592Z,2.07
2023-01-01T13:01:11.397Z,2.43
2023-01-01T13:03:50.806Z,1.93
2023-01-01T13:06:28.339Z,2.50
2023-01-01T13:09:06.538Z,2.00
2023-01-01T13:11:41.333Z,2.00
2023-01-01T13:14:13.096Z,2.10
2023-01-01T13:16:43.498Z,2.03
2023-01-01T13:19:37.570Z,2.00
2023-01-01T13:22:42.997Z,1.80
2023-01-01T13:25:25.517Z,1.73
2023-01-01T13:28:13.470Z,1.53
2023-01-01T13:30:49.964Z,2.10
2023-01-01T13:33:26.583Z,1.83
2023-01-01T13:36:32.206Z,1.67
2023-01-01T13:39:02.115Z,2.00
2023-01-01T13:41:40.467Z,2.00
2023-01-01T13:44:20.482Z,2.00
2023-01-01T13:47:19.614Z,1.87
2023-01-01T13:50:06.193Z,1.70
2023-01-01T13:53:04.014Z,1.77
2023-01-01T13:55:58.455Z,1.80
2023-01-01T13:59:00.098Z,2.00
2023-01-01T14:01:45.296Z,1.80
2023-01-01T14:04:33.387Z,2.07
2023-01-01T14:07:49.014Z,2.00
2023-01-01T14:10:23.112Z,2.30
2023-01-01T14:12:52.550Z,2.20
2023-01-01T14:15:30.554Z,2.70
2023-01-01T14:18:02.208Z,2.40
2023-01-01T14:20:37.326Z,2.30
2023-01-01T14:23:11.943Z,2.20
2023-01-01T14:25:44.699Z,2.50
2023-01-01T14:28:22.880Z,2.50
2023-01-01T14:30:53.452Z,2.00
2023-01-01T14:33:27.948Z,1.80
2023-01-01T14:35:57.972Z,2.00
2023-01-01T14:38:28.641Z,2.17
2023-01-01T14:41:15.077Z,2.00
2023-01-01T14:43:46.925Z,2.00
2023-01-01T14:46:20.116Z,2.23
2023-01-01T14:48:51.710Z,1.67
2023-01-01T14:51:23.585Z,2.30
2023-01-01T14:53:53.923Z,2.87
2023-01-01T14:56:28.833Z,2.00
2023-01-01T14:59:08.120Z,2.00
2023-01-01T15:01:39.583Z,2.93
2023-01-01T15:04:21.918Z,1.90
2023-01-01T15:06:55.421Z,2.00
2023-01-01T15:09:24.237Z,2.17
2023-01-01T15:11:54.051Z,2.10
2023-01-01T15:14:37.030Z,2.53
2023-01-01T15:17:08.799Z,2.30
2023-01-01T15:19:41.054Z,3.67
2023-01-01T15:22:18.439Z,3.23
2023-01-01T15:24:47.166Z,3.70
2023-01-01T15:27:25.521Z,2.53
2023-01-01T15:29:56.505Z,5.20
2023-01-01T15:32:29.572Z,2.20
2023-01-01T15:35:00.707Z,2.13
2023-01-01T15:37:34.895Z,2.67
2023-01-01T15:40:25.509Z,2.70
2023-01-01T15:43:15.745Z,2.27
2023-01-01T15:45:53.833Z,2.77
2023-01-01T15:48:32.075Z,2.17
2023-01-01T15:51:14.863Z,2.53
2023-01-01T15:53:57.494Z,3.80
2023-01-01T15:56:28.821Z,12.57
2023-01-01T15:59:05.290Z,3.10
2023-01-01T16:01:40.213Z,1.83
2023-01-01T16:04:20.641Z,1.60
2023-01-01T16:06:55.178Z,1.90
2023-01-01T16:09:23.637Z,2.00
2023-01-01T16:11:54.234Z,1.83
2023-01-01T16:14:22.420Z,1.90
2023-01-01T16:16:57.158Z,2.50
2023-01-01T16:19:27.349Z,2.70
2023-01-01T16:21:55.276Z,2.60
2023-01-01T16:24:24.375Z,2.03
2023-01-01T16:26:53.735Z,2.00
2023-01-01T16:29:21.576Z,2.20
2023-01-01T16:31:51.577Z,2.00
2023-01-01T16:34:19.830Z,2.30
2023-01-01T16:36:51.364Z,1.53
2023-01-01T16:39:19.420Z,2.30
2023-01-01T16:41:47.617Z,2.27
2023-01-01T16:44:16.626Z,2.67
2023-01-01T16:46:44.593Z,2.13
2023-01-01T16:49:12.567Z,2.00
2023-01-01T16:51:43.748Z,2.23
2023-01-01T16:54:13.486Z,2.63
2023-01-01T16:56:44.001Z,2.20
2023-01-01T16:59:11.853Z,2.47
2023-01-01T17:01:39.805Z,2.30
2023-01-01T17:04:08.418Z,2.20
2023-01-01T17:06:38.635Z,2.90
2023-01-01T17:09:07.313Z,2.27
2023-01-01T17:11:39.261Z,1.70
2023-01-01T17:14:07.432Z,2.10
2023-01-01T17:16:39.385Z,2.00
2023-01-01T17:19:17.450Z,2.50
2023-01-01T17:21:48.046Z,2.43
2023-01-01T17:24:16.904Z,3.27
2023-01-01T17:26:46.800Z,2.50
2023-01-01T17:29:14.680Z,2.60
2023-01-01T17:31:43.793Z,2.53
2023-01-01T17:34:14.581Z,2.70
2023-01-01T17:36:44.091Z,2.27
2023-01-01T17:39:13.661Z,2.80
2023-01-01T17:41:42.629Z,2.20
2023-01-01T17:44:12.286Z,2.20
2023-01-01T17:46:40.604Z,2.20
2023-01-01T17:49:09.083Z,3.43
2023-01-01T17:51:37.326Z,4.73
2023-01-01T17:54:07.144Z,3.40
2023-01-01T17:56:35.220Z,2.80
2023-01-01T17:59:03.391Z,2.33
2023-01-01T18:01:35.321Z,3.10
2023-01-01T18:04:06.366Z,2.57
2023-01-01T18:06:41.948Z,2.60
2023-01-01T18:09:13.972Z,2.47
2023-01-01T18:11:43.152Z,2.43
2023-01-01T18:14:12.772Z,2.90
2023-01-01T18:16:45.296Z,2.57
2023-01-01T18:19:13.568Z,2.37
2023-01-01T18:21:42.967Z,2.90
2023-01-01T18:24:14.881Z,2.53
2023-01-01T18:26:43.288Z,2.00
2023-01-01T18:29:11.232Z,2.80
2023-01-01T18:31:39.197Z,2.10
2023-01-01T18:34:08.742Z,3.13
2023-01-01T18:36:36.846Z,2.40
2023-01-01T18:39:15.767Z,2.67
2023-01-01T18:42:34.336Z,2.50
2023-01-01T18:45:14.616Z,2.47
2023-01-01T18:47:45.610Z,2.50
2023-01-01T18:50:23.826Z,2.70
2023-01-01T18:52:55.239Z,2.60
2023-01-01T18:55:27.830Z,2.80
2023-01-01T18:58:06.226Z,2.80
2023-01-01T19:00:36.362Z,2.70
2023-01-01T19:03:12.389Z,2.73
2023-01-01T19:05:42.021Z,3.10
2023-01-01T19:08:17.097Z,2.43
2023-01-01T19:10:48.163Z,3.13
2023-01-01T19:13:21.342Z,2.63
2023-01-01T19:15:55.027Z,2.50
2023-01-01T19:18:25.292Z,2.67
2023-01-01T19:21:02.263Z,2.63
2023-01-01T19:23:32.275Z,2.40
2023-01-01T19:26:04.878Z,3.23
2023-01-01T19:28:36.383Z,2.63
2023-01-01T19:31:06.787Z,4.07
2023-01-01T19:33:34.734Z,3.37
2023-01-01T19:36:03.991Z,2.73
2023-01-01T19:38:32.842Z,2.43
2023-01-01T19:41:00.717Z,2.80
2023-01-01T19:43:28.617Z,2.47
2023-01-01T19:45:56.465Z,3.70
2023-01-01T19:48:25.524Z,2.40
2023-01-01T19:50:53.352Z,3.00
2023-01-01T19:53:22.894Z,2.53
2023-01-01T19:55:50.807Z,2.37
2023-01-01T19:58:19.865Z,2.90
2023-01-01T20:00:47.889Z,2.50
2023-01-01T20:06:05.576Z,2.37
2023-01-01T20:08:37.965Z,3.40
2023-01-01T20:11:07.609Z,2.73
2023-01-01T20:13:35.662Z,3.17
2023-01-01T20:16:03.854Z,3.03
2023-01-01T20:18:31.790Z,5.13
2023-01-01T20:21:25.897Z,7.70
2023-01-01T20:23:56.288Z,5.93
2023-01-01T20:26:25.916Z,7.00
2023-01-01T20:29:11.734Z,5.03
2023-01-01T20:31:40.508Z,3.57
2023-01-01T20:34:08.408Z,4.20
2023-01-01T20:36:54.127Z,3.70
2023-01-01T20:39:23.370Z,3.00
2023-01-01T20:41:51.484Z,3.17
2023-01-01T20:44:19.588Z,3.70
2023-01-01T20:46:50.341Z,3.90
2023-01-01T20:49:19.231Z,3.17
2023-01-01T20:51:49.191Z,2.40
2023-01-01T20:54:17.051Z,3.60
2023-01-01T20:56:46.302Z,4.10
2023-01-01T20:59:34.615Z,4.33
2023-01-01T21:02:03.546Z,5.87
2023-01-01T21:04:31.539Z,6.03
2023-01-01T21:06:59.428Z,6.50
2023-01-01T21:09:27.312Z,7.57
2023-01-01T21:11:56.483Z,7.50
2023-01-01T21:14:25.941Z,7.27
2023-01-01T21:16:53.974Z,7.67
2023-01-01T21:19:26.923Z,6.10
2023-01-01T21:21:57.919Z,5.00
2023-01-01T21:24:29.371Z,8.10
2023-01-01T21:27:11.964Z,5.87
2023-01-01T21:29:46.374Z,4.60
2023-01-01T21:32:22.037Z,4.83
2023-01-01T21:34:51.370Z,3.60
2023-01-01T21:37:44.748Z,4.20
2023-01-01T21:40:45.392Z,4.30
2023-01-01T21:43:39.638Z,3.67
2023-01-01T21:46:26.660Z,3.47
2023-01-01T21:48:59.306Z,3.63
2023-01-01T21:51:31.379Z,3.57
2023-01-01T21:54:19.133Z,3.53
2023-01-01T21:56:55.395Z,3.30
2023-01-01T21:59:34.757Z,3.77
2023-01-01T22:02:34.691Z,3.47
2023-01-01T22:05:37.066Z,3.33
2023-01-01T22:08:24.979Z,3.67
2023-01-01T22:10:53.026Z,3.20
2023-01-01T22:13:22.264Z,3.33
2023-01-01T22:15:54.485Z,4.03
2023-01-01T22:18:30.805Z,4.13
2023-01-01T22:21:02.594Z,4.27
2023-01-01T22:23:39.787Z,3.70
2023-01-01T22:26:19.587Z,4.10
2023-01-01T22:28:51.416Z,4.00
2023-01-01T22:31:26.602Z,3.40
2023-01-01T22:33:57.158Z,3.77
2023-01-01T22:36:28.177Z,3.17
2023-01-01T22:39:01.584Z,3.53
2023-01-01T22:41:30.181Z,2.97
2023-01-01T22:44:03.362Z,3.20
2023-01-01T22:46:37.152Z,3.07
2023-01-01T22:49:18.893Z,3.30
2023-01-01T22:51:51.027Z,4.37
2023-01-01T22:54:19.750Z,2.90
2023-01-01T22:56:47.638Z,3.30
2023-01-01T22:59:15.583Z,3.53
2023-01-01T23:01:44.806Z,3.27
2023-01-01T23:04:12.688Z,3.57
2023-01-01T23:06:40.721Z,3.47
2023-01-01T23:09:11.177Z,3.20
2023-01-01T23:11:39.875Z,3.07
2023-01-01T23:14:25.739Z,2.70
2023-01-01T23:16:55.000Z,3.40
2023-01-01T23:19:22.914Z,3.70
2023-01-01T23:21:51.043Z,3.50
2023-01-01T23:24:23.877Z,3.20
2023-01-01T23:26:53.687Z,3.13
2023-01-01T23:29:25.539Z,3.03
2023-01-01T23:31:54.751Z,3.20
2023-01-01T23:34:23.149Z,3.10
2023-01-01T23:36:54.132Z,3.67
2023-01-01T23:39:22.085Z,3.60
2023-01-01T23:41:52.536Z,2.83
2023-01-01T23:44:20.820Z,3.60
2023-01-01T23:46:49.180Z,3.60
2023-01-01T23:49:19.838Z,3.20
2023-01-01T23:51:47.947Z,3.23
2023-01-01T23:54:16.181Z,3.30
2023-01-01T23:56:44.432Z,2.80
2023-01-01T23:59:12.831Z,3.30
